createdAt,value
2022-10-01T00:01:11.580Z,5.25
2022-10-01T00:03:57.235Z,7.03
2022-10-01T00:06:43.029Z,6.15
2022-10-01T00:09:28.366Z,5.90
2022-10-01T00:12:15.844Z,5.28
2022-10-01T00:15:05.780Z,5.47
2022-10-01T00:17:52.292Z,4.10
2022-10-01T00:20:43.605Z,4.85
2022-10-01T00:23:29.540Z,4.70
2022-10-01T00:26:21.064Z,5.35
2022-10-01T00:29:11.614Z,5.45
2022-10-01T00:31:58.150Z,5.03
2022-10-01T00:34:44.284Z,5.38
2022-10-01T00:37:29.760Z,4.43
2022-10-01T00:40:15.229Z,5.10
2022-10-01T00:43:00.906Z,5.22
2022-10-01T00:45:46.546Z,5.38
2022-10-01T00:48:37.731Z,5.82
2022-10-01T00:51:30.559Z,5.45
2022-10-01T00:54:24.199Z,5.90
2022-10-01T00:57:11.545Z,5.75
2022-10-01T01:00:00.181Z,6.53
2022-10-01T01:02:45.765Z,3.90
2022-10-01T01:05:31.541Z,3.63
2022-10-01T01:08:18.219Z,3.85
2022-10-01T01:11:06.853Z,4.05
2022-10-01T01:14:23.543Z,4.03
2022-10-01T01:17:15.751Z,4.53
2022-10-01T01:20:37.920Z,4.20
2022-10-01T01:23:54.864Z,3.85
2022-10-01T01:26:49.653Z,3.85
2022-10-01T01:30:00.483Z,5.03
2022-10-01T01:33:04.746Z,4.40
2022-10-01T01:35:54.865Z,4.38
2022-10-01T01:38:44.958Z,3.88
2022-10-01T01:41:37.740Z,4.65
2022-10-01T01:44:27.077Z,4.38
2022-10-01T01:47:13.430Z,4.90
2022-10-01T01:50:02.897Z,4.72
2022-10-01T01:52:48.151Z,5.20
2022-10-01T01:55:35.437Z,4.50
2022-10-01T01:58:21.208Z,3.88
2022-10-01T02:01:06.733Z,4.47
2022-10-01T02:03:52.319Z,4.15
2022-10-01T02:07:05.278Z,4.57
2022-10-01T02:10:10.507Z,4.47
2022-10-01T02:13:17.702Z,4.10
2022-10-01T02:16:25.437Z,3.88
2022-10-01T02:19:28.831Z,3.83
2022-10-01T02:22:28.128Z,4.72
2022-10-01T02:25:17.401Z,5.15
2022-10-01T02:28:18.404Z,4.85
2022-10-01T02:31:04.670Z,4.07
2022-10-01T02:33:53.817Z,4.22
2022-10-01T02:36:41.676Z,4.50
2022-10-01T02:39:30.644Z,4.60
2022-10-01T02:42:19.038Z,4.88
2022-10-01T02:45:05.695Z,4.70
2022-10-01T02:47:57.777Z,5.55
2022-10-01T02:50:50.282Z,4.53
2022-10-01T02:53:43.676Z,4.22
2022-10-01T02:57:07.560Z,4.70
2022-10-01T02:59:57.811Z,3.53
2022-10-01T03:02:43.784Z,3.80
2022-10-01T03:05:29.518Z,4.30
2022-10-01T03:08:15.194Z,5.05
2022-10-01T03:11:01.081Z,4.80
2022-10-01T03:13:46.738Z,4.55
2022-10-01T03:16:33.141Z,4.22
2022-10-01T03:19:19.364Z,4.80
2022-10-01T03:22:05.420Z,5.10
2022-10-01T03:24:52.447Z,4.20
2022-10-01T03:27:38.535Z,5.03
2022-10-01T03:30:24.503Z,4.53
2022-10-01T03:33:10.071Z,4.13
2022-10-01T03:35:55.549Z,3.65
2022-10-01T03:38:41.158Z,3.22
2022-10-01T03:41:26.947Z,3.53
2022-10-01T03:44:12.635Z,3.67
2022-10-01T03:46:58.330Z,5.15
2022-10-01T03:49:44.018Z,4.97
2022-10-01T03:52:29.652Z,4.93
2022-10-01T03:55:15.239Z,4.78
2022-10-01T03:58:00.758Z,5.88
2022-10-01T04:00:47.734Z,5.60
2022-10-01T04:03:33.318Z,4.95
2022-10-01T04:06:19.014Z,4.47
2022-10-01T04:09:05.059Z,4.25
2022-10-01T04:11:50.608Z,3.50
2022-10-01T04:14:36.105Z,3.60
2022-10-01T04:17:22.231Z,3.85
2022-10-01T04:20:08.652Z,4.32
2022-10-01T04:22:54.651Z,3.67
2022-10-01T04:25:40.929Z,4.05
2022-10-01T04:28:26.488Z,3.72
2022-10-01T04:31:25.334Z,4.15
2022-10-01T04:34:10.908Z,4.45
2022-10-01T04:36:56.432Z,4.20
2022-10-01T04:39:41.873Z,4.35
2022-10-01T04:42:27.451Z,3.63
2022-10-01T04:45:13.637Z,3.70
2022-10-01T04:47:59.856Z,4.13
2022-10-01T04:50:45.427Z,5.47
2022-10-01T04:53:30.866Z,4.47
2022-10-01T04:56:16.565Z,3.90
2022-10-01T04:59:02.485Z,3.78
2022-10-01T05:01:48.015Z,3.80
2022-10-01T05:04:33.674Z,3.33
2022-10-01T05:07:19.511Z,3.17
2022-10-01T05:10:05.446Z,3.17
2022-10-01T05:12:51.995Z,3.47
2022-10-01T05:15:37.425Z,3.92
2022-10-01T05:18:22.839Z,3.80
2022-10-01T05:21:11.678Z,3.70
2022-10-01T05:23:57.235Z,4.93
2022-10-01T05:26:42.709Z,5.55
2022-10-01T05:29:28.056Z,6.70
2022-10-01T05:32:13.572Z,6.15
2022-10-01T05:34:59.295Z,5.78
2022-10-01T05:37:44.526Z,5.45
2022-10-01T05:40:30.833Z,5.65
2022-10-01T05:43:16.506Z,5.70
2022-10-01T05:46:08.013Z,4.97
2022-10-01T05:48:53.604Z,5.38
2022-10-01T05:51:39.386Z,5.80
2022-10-01T05:54:24.883Z,6.40
2022-10-01T05:57:10.753Z,6.22
2022-10-01T05:59:57.460Z,6.88
2022-10-01T06:02:42.960Z,6.63
2022-10-01T06:05:29.740Z,7.75
2022-10-01T06:08:15.776Z,6.67
2022-10-01T06:11:02.445Z,7.75
2022-10-01T06:13:48.650Z,6.87
2022-10-01T06:16:34.296Z,7.07
2022-10-01T06:19:19.673Z,7.53
2022-10-01T06:22:05.322Z,9.48
2022-10-01T06:24:54.801Z,9.15
2022-10-01T06:27:42.361Z,8.82
2022-10-01T06:30:30.530Z,8.68
2022-10-01T06:33:18.111Z,7.15
2022-10-01T06:36:04.499Z,6.88
2022-10-01T06:38:50.185Z,7.35
2022-10-01T06:41:35.782Z,7.60
2022-10-01T06:44:22.194Z,10.02
2022-10-01T06:47:07.674Z,11.43
2022-10-01T06:49:52.935Z,11.75
2022-10-01T06:52:50.559Z,11.38
2022-10-01T06:55:37.949Z,8.80
2022-10-01T06:58:28.029Z,8.32
2022-10-01T07:01:13.615Z,8.25
2022-10-01T07:03:59.225Z,5.28
2022-10-01T07:06:44.542Z,4.97
2022-10-01T07:09:29.932Z,5.68
2022-10-01T07:12:15.316Z,5.20
2022-10-01T07:15:00.938Z,5.50
2022-10-01T07:17:49.623Z,4.38
2022-10-01T07:20:39.512Z,5.90
2022-10-01T07:23:25.321Z,4.78
2022-10-01T07:26:10.810Z,6.35
2022-10-01T07:28:56.349Z,5.28
2022-10-01T07:31:41.864Z,4.68
2022-10-01T07:34:28.382Z,3.40
2022-10-01T07:37:14.587Z,5.17
2022-10-01T07:40:03.045Z,4.05
2022-10-01T07:42:57.627Z,4.45
2022-10-01T07:45:44.957Z,4.60
2022-10-01T07:48:31.127Z,5.15
2022-10-01T07:51:16.694Z,4.38
2022-10-01T07:54:03.679Z,4.28
2022-10-01T07:56:52.935Z,3.43
2022-10-01T07:59:40.402Z,4.22
2022-10-01T08:02:26.025Z,2.92
2022-10-01T08:05:20.447Z,3.83
2022-10-01T08:08:08.713Z,3.70
2022-10-01T08:10:54.628Z,4.05
2022-10-01T08:13:41.144Z,4.03
2022-10-01T08:16:29.174Z,3.83
2022-10-01T08:19:15.322Z,3.50
2022-10-01T08:22:01.027Z,3.35
2022-10-01T08:24:46.984Z,3.38
2022-10-01T08:27:32.641Z,3.75
2022-10-01T08:30:18.121Z,2.90
2022-10-01T08:33:04.033Z,3.28
2022-10-01T08:35:49.814Z,3.03
2022-10-01T08:38:37.851Z,3.78
2022-10-01T08:41:35.332Z,3.65
2022-10-01T08:44:28.519Z,3.40
2022-10-01T08:47:24.956Z,4.10
2022-10-01T08:50:25.256Z,3.55
2022-10-01T08:53:31.790Z,3.47
2022-10-01T08:56:25.243Z,3.55
2022-10-01T08:59:39.892Z,3.13
2022-10-01T09:02:29.101Z,3.60
2022-10-01T09:05:24.797Z,2.47
2022-10-01T09:08:20.465Z,2.70
2022-10-01T09:11:14.720Z,2.20
2022-10-01T09:14:09.953Z,1.83
2022-10-01T09:17:17.120Z,2.10
2022-10-01T09:20:25.296Z,2.42
2022-10-01T09:23:28.660Z,2.30
2022-10-01T09:26:14.177Z,2.95
2022-10-01T09:29:01.798Z,2.47
2022-10-01T09:31:49.918Z,2.40
2022-10-01T09:34:39.938Z,2.50
2022-10-01T09:37:44.567Z,2.10
2022-10-01T09:40:38.697Z,2.75
2022-10-01T09:43:33.081Z,2.60
2022-10-01T09:46:20.196Z,2.30
2022-10-01T09:49:16.219Z,3.42
2022-10-01T09:52:06.329Z,3.38
2022-10-01T09:55:26.015Z,2.97
2022-10-01T09:58:20.987Z,2.88
2022-10-01T10:01:26.294Z,3.25
2022-10-01T10:04:12.471Z,2.72
2022-10-01T10:07:02.533Z,3.05
2022-10-01T10:09:48.101Z,3.28
2022-10-01T10:12:34.761Z,2.70
2022-10-01T10:15:23.047Z,2.55
2022-10-01T10:18:19.195Z,3.28
2022-10-01T10:21:16.591Z,3.97
2022-10-01T10:24:05.323Z,4.15
2022-10-01T10:26:56.592Z,2.72
2022-10-01T10:29:42.092Z,4.00
2022-10-01T10:32:28.663Z,4.53
2022-10-01T10:35:33.997Z,2.90
2022-10-01T10:38:20.441Z,3.50
2022-10-01T10:41:06.247Z,5.82
2022-10-01T10:43:54.770Z,3.13
2022-10-01T10:46:45.269Z,3.03
2022-10-01T10:49:34.644Z,2.65
2022-10-01T10:52:30.513Z,3.17
2022-10-01T10:55:22.953Z,2.70
2022-10-01T10:58:14.657Z,4.20
2022-10-01T11:01:22.233Z,3.20
2022-10-01T11:04:25.654Z,3.33
2022-10-01T11:07:13.742Z,3.05
2022-10-01T11:13:19.819Z,3.58
2022-10-01T11:16:24.510Z,2.65
2022-10-01T11:19:27.998Z,2.35
2022-10-01T11:22:33.725Z,3.08
2022-10-01T11:25:25.170Z,2.10
2022-10-01T11:28:37.781Z,2.47
2022-10-01T11:31:47.381Z,2.45
2022-10-01T11:34:37.878Z,2.45
2022-10-01T11:37:47.624Z,2.05
2022-10-01T11:40:42.341Z,2.88
2022-10-01T11:43:34.416Z,2.45
2022-10-01T11:46:28.401Z,3.50
2022-10-01T11:49:34.067Z,2.00
2022-10-01T11:52:30.088Z,2.30
2022-10-01T11:56:10.478Z,2.40
2022-10-01T11:59:19.608Z,2.10
2022-10-01T12:02:15.461Z,2.10
2022-10-01T12:05:32.004Z,2.75
2022-10-01T12:08:32.640Z,1.70
2022-10-01T12:11:29.332Z,4.85
2022-10-01T12:14:20.173Z,2.58
2022-10-01T12:17:21.006Z,5.38
2022-10-01T12:20:48.216Z,4.38
2022-10-01T12:23:46.285Z,2.13
2022-10-01T12:26:43.834Z,1.55
2022-10-01T12:29:32.719Z,2.30
2022-10-01T12:32:37.113Z,2.00
2022-10-01T12:35:38.053Z,1.15
2022-10-01T12:38:23.126Z,1.67
2022-10-01T12:41:30.164Z,1.90
2022-10-01T12:44:24.411Z,1.30
2022-10-01T12:47:28.550Z,1.33
2022-10-01T12:50:42.800Z,0.90
2022-10-01T12:53:46.454Z,1.27
2022-10-01T12:56:40.258Z,1.35
2022-10-01T12:59:45.036Z,1.27
2022-10-01T13:02:46.168Z,1.38
2022-10-01T13:05:31.802Z,1.45
2022-10-01T13:08:17.530Z,1.60
2022-10-01T13:11:30.328Z,1.10
2022-10-01T13:14:18.188Z,2.85
2022-10-01T13:20:27.164Z,1.60
2022-10-01T13:23:21.197Z,1.23
2022-10-01T13:28:28.906Z,0.93
2022-10-01T13:31:19.156Z,2.67
2022-10-01T13:34:26.429Z,1.50
2022-10-01T13:37:15.486Z,4.60
2022-10-01T13:40:01.154Z,1.10
2022-10-01T13:42:48.094Z,1.45
2022-10-01T13:45:41.694Z,1.33
2022-10-01T13:48:32.378Z,1.42
2022-10-01T13:51:20.284Z,1.52
2022-10-01T13:54:16.846Z,2.47
2022-10-01T13:57:24.731Z,1.10
2022-10-01T14:00:13.088Z,1.98
2022-10-01T14:03:36.602Z,2.47
2022-10-01T14:06:33.401Z,2.95
2022-10-01T14:09:23.564Z,2.20
2022-10-01T14:12:36.488Z,1.95
2022-10-01T14:15:40.578Z,1.58
2022-10-01T14:18:42.913Z,2.55
2022-10-01T14:21:46.252Z,2.22
2022-10-01T14:25:11.412Z,1.23
2022-10-01T14:28:47.153Z,1.58
2022-10-01T14:31:51.018Z,2.10
2022-10-01T14:35:00.608Z,1.33
2022-10-01T14:37:46.979Z,1.70
2022-10-01T14:40:43.988Z,1.80
2022-10-01T14:43:31.023Z,1.98
2022-10-01T14:46:18.802Z,2.40
2022-10-01T14:49:04.277Z,1.52
2022-10-01T14:52:05.672Z,1.70
2022-10-01T14:55:00.474Z,2.50
2022-10-01T14:57:50.208Z,2.35
2022-10-01T15:00:35.865Z,2.05
2022-10-01T15:03:21.745Z,2.20
2022-10-01T15:06:19.980Z,3.65
2022-10-01T15:09:15.118Z,2.22
2022-10-01T15:12:02.403Z,1.90
2022-10-01T15:14:53.987Z,1.75
2022-10-01T15:17:42.372Z,1.40
2022-10-01T15:20:27.962Z,1.58
2022-10-01T15:23:14.369Z,2.10
2022-10-01T15:26:02.723Z,1.63
2022-10-01T15:28:48.347Z,4.13
2022-10-01T15:31:34.406Z,3.28
2022-10-01T15:34:22.893Z,1.98
2022-10-01T15:37:17.899Z,2.13
2022-10-01T15:40:07.161Z,2.10
2022-10-01T15:43:26.496Z,2.17
2022-10-01T15:49:12.557Z,1.85
2022-10-01T15:52:20.465Z,1.48
2022-10-01T15:55:15.620Z,1.90
2022-10-01T15:58:06.903Z,2.15
2022-10-01T16:01:04.165Z,2.40
2022-10-01T16:03:56.862Z,3.78
2022-10-01T16:06:45.049Z,5.10
2022-10-01T16:09:30.903Z,2.53
2022-10-01T16:12:22.266Z,2.13
2022-10-01T16:15:24.626Z,4.70
2022-10-01T16:18:22.064Z,4.28
2022-10-01T16:21:10.366Z,9.48
2022-10-01T16:23:56.324Z,2.97
2022-10-01T16:26:43.401Z,3.03
2022-10-01T16:29:28.748Z,1.88
2022-10-01T16:32:15.032Z,2.22
2022-10-01T16:35:17.471Z,2.42
2022-10-01T16:38:06.789Z,2.40
2022-10-01T16:40:52.928Z,3.58
2022-10-01T16:43:39.066Z,3.85
2022-10-01T16:46:24.768Z,2.22
2022-10-01T16:49:15.500Z,5.65
2022-10-01T16:52:01.231Z,10.88
2022-10-01T16:54:47.872Z,1.73
2022-10-01T16:57:33.084Z,4.78
2022-10-01T17:00:20.490Z,2.63
2022-10-01T17:03:09.150Z,13.50
2022-10-01T17:05:54.752Z,8.02
2022-10-01T17:08:40.203Z,2.55
2022-10-01T17:11:26.961Z,3.95
2022-10-01T17:14:18.080Z,4.93
2022-10-01T17:17:03.508Z,2.15
2022-10-01T17:19:48.950Z,4.38
2022-10-01T17:22:34.274Z,4.07
2022-10-01T17:25:22.992Z,2.28
2022-10-01T17:28:14.104Z,4.53
2022-10-01T17:30:59.812Z,3.22
2022-10-01T17:33:45.637Z,9.70
2022-10-01T17:36:32.100Z,3.03
2022-10-01T17:39:17.722Z,5.75
2022-10-01T17:42:03.610Z,2.47
2022-10-01T17:44:49.817Z,1.98
2022-10-01T17:47:36.076Z,2.30
2022-10-01T17:50:21.638Z,2.53
2022-10-01T17:53:06.912Z,2.92
2022-10-01T17:55:52.166Z,2.40
2022-10-01T17:58:40.627Z,2.25
2022-10-01T18:01:31.309Z,2.00
2022-10-01T18:04:17.312Z,2.00
2022-10-01T18:07:08.052Z,1.70
2022-10-01T18:09:54.036Z,2.22
2022-10-01T18:12:39.981Z,1.95
2022-10-01T18:15:25.294Z,2.10
2022-10-01T18:19:51.461Z,2.20
2022-10-01T18:21:17.125Z,2.50
2022-10-01T18:24:04.760Z,2.00
2022-10-01T18:26:50.991Z,2.20
2022-10-01T18:29:36.575Z,2.70
2022-10-01T18:32:25.186Z,1.90
2022-10-01T18:35:47.286Z,2.17
2022-10-01T18:38:37.287Z,1.20
2022-10-01T18:41:36.699Z,1.90
2022-10-01T18:44:23.764Z,2.30
2022-10-01T18:47:21.839Z,2.78
2022-10-01T18:50:21.616Z,3.15
2022-10-01T18:53:36.397Z,1.90
2022-10-01T18:56:33.412Z,1.58
2022-10-01T18:59:28.207Z,2.30
2022-10-01T19:02:48.137Z,2.03
2022-10-01T19:05:57.010Z,2.05
2022-10-01T19:09:01.224Z,2.58
2022-10-01T19:12:17.419Z,2.08
2022-10-01T19:15:12.920Z,2.20
2022-10-01T19:18:21.322Z,2.47
2022-10-01T19:21:28.360Z,2.00
2022-10-01T19:24:17.074Z,1.80
2022-10-01T19:27:43.877Z,2.00
2022-10-01T19:30:41.849Z,2.05
2022-10-01T19:33:32.984Z,2.50
2022-10-01T19:36:27.751Z,1.70
2022-10-01T19:39:22.680Z,2.08
2022-10-01T19:42:31.306Z,2.53
2022-10-01T19:45:33.276Z,2.13
2022-10-01T19:48:25.203Z,2.30
2022-10-01T19:51:13.761Z,2.30
2022-10-01T19:54:01.475Z,1.88
2022-10-01T19:59:36.623Z,1.85
2022-10-01T20:02:35.291Z,1.50
2022-10-01T20:05:31.852Z,1.92
2022-10-01T20:08:40.377Z,1.33
2022-10-01T20:11:31.422Z,1.25
2022-10-01T20:14:38.588Z,1.30
2022-10-01T20:18:13.081Z,1.00
2022-10-01T20:21:14.045Z,1.20
2022-10-01T20:24:28.828Z,1.00
2022-10-01T20:27:20.947Z,0.98
2022-10-01T20:30:17.695Z,0.70
2022-10-01T20:33:11.961Z,1.05
2022-10-01T20:36:24.706Z,1.00
2022-10-01T20:39:23.884Z,0.80
2022-10-01T20:42:20.876Z,1.15
2022-10-01T20:45:17.379Z,0.65
2022-10-01T20:48:13.765Z,1.42
2022-10-01T20:51:16.039Z,1.15
2022-10-01T20:54:24.158Z,0.88
2022-10-01T20:57:58.168Z,0.80
2022-10-01T21:00:46.174Z,1.00
2022-10-01T21:03:40.747Z,1.00
2022-10-01T21:06:35.581Z,0.85
2022-10-01T21:09:31.169Z,0.70
2022-10-01T21:12:21.542Z,1.23
2022-10-01T21:15:12.682Z,0.88
2022-10-01T21:18:20.126Z,1.00
2022-10-01T21:21:31.384Z,1.15
2022-10-01T21:24:30.390Z,0.90
2022-10-01T21:27:48.269Z,1.23
2022-10-01T21:31:00.113Z,1.10
2022-10-01T21:34:02.111Z,0.80
2022-10-01T21:37:15.182Z,1.00
2022-10-01T21:40:22.263Z,1.23
2022-10-01T21:43:38.647Z,0.85
2022-10-01T21:46:35.829Z,0.95
2022-10-01T21:49:29.723Z,1.15
2022-10-01T21:52:34.908Z,1.40
2022-10-01T21:55:21.168Z,1.05
2022-10-01T21:58:34.565Z,0.90
2022-10-01T22:01:35.391Z,1.15
2022-10-01T22:04:32.231Z,0.90
2022-10-01T22:07:28.160Z,0.90
2022-10-01T22:10:46.010Z,1.10
2022-10-01T22:13:35.814Z,0.90
2022-10-01T22:16:24.659Z,0.90
2022-10-01T22:19:16.251Z,1.00
2022-10-01T22:22:25.700Z,1.05
2022-10-01T22:25:13.783Z,0.80
2022-10-01T22:28:13.744Z,0.70
2022-10-01T22:31:03.643Z,0.68
2022-10-01T22:33:57.585Z,0.98
2022-10-01T22:37:01.987Z,0.70
2022-10-01T22:40:10.310Z,0.90
2022-10-01T22:43:14.787Z,1.13
2022-10-01T22:46:19.917Z,1.20
2022-10-01T22:49:08.459Z,0.90
2022-10-01T22:52:14.164Z,0.80
2022-10-01T22:55:24.636Z,0.82
2022-10-01T22:58:22.635Z,1.15
2022-10-01T23:01:17.275Z,1.08
2022-10-01T23:04:15.137Z,1.20
2022-10-01T23:07:12.698Z,0.90
2022-10-01T23:10:20.660Z,1.10
2022-10-01T23:13:24.726Z,1.08
2022-10-01T23:16:19.721Z,0.95
2022-10-01T23:19:31.996Z,0.85
2022-10-01T23:22:29.415Z,0.88
2022-10-01T23:25:37.313Z,0.90
2022-10-01T23:28:44.871Z,1.70
2022-10-01T23:31:42.677Z,1.00
2022-10-01T23:35:04.897Z,0.97
2022-10-01T23:38:08.967Z,0.85
2022-10-01T23:40:59.932Z,0.90
2022-10-01T23:43:48.536Z,0.80
2022-10-01T23:46:36.656Z,0.80
2022-10-01T23:49:29.394Z,0.90
2022-10-01T23:52:31.768Z,0.90
2022-10-01T23:55:54.357Z,1.23
2022-10-01T23:58:50.078Z,1.05
